sensor_id;sensor_type;location;lat;lon;timestamp;P1;durP1;ratioP1;P2;durP2;ratioP2
45784;SDS011;31489;51.404;5.474;2023-07-29T00:01:16;5.28;;;4.00;;
45784;SDS011;31489;51.404;5.474;2023-07-29T00:03:42;4.85;;;3.60;;
45784;SDS011;31489;51.404;5.474;2023-07-29T00:06:09;5.25;;;3.22;;
45784;SDS011;31489;51.404;5.474;2023-07-29T00:08:34;3.53;;;2.72;;
45784;SDS011;31489;51.404;5.474;2023-07-29T00:11:00;3.30;;;2.65;;
45784;SDS011;31489;51.404;5.474;2023-07-29T00:13:25;3.22;;;2.60;;
45784;SDS011;31489;51.404;5.474;2023-07-29T00:15:53;4.03;;;2.33;;
45784;SDS011;31489;51.404;5.474;2023-07-29T00:18:20;2.65;;;2.38;;
45784;SDS011;31489;51.404;5.474;2023-07-29T00:20:47;3.50;;;2.20;;
45784;SDS011;31489;51.404;5.474;2023-07-29T00:23:12;2.05;;;1.95;;
45784;SDS011;31489;51.404;5.474;2023-07-29T00:25:38;6.35;;;2.20;;
45784;SDS011;31489;51.404;5.474;2023-07-29T00:28:04;3.53;;;2.20;;
45784;SDS011;31489;51.404;5.474;2023-07-29T00:30:29;2.03;;;1.83;;
45784;SDS011;31489;51.404;5.474;2023-07-29T00:32:55;2.38;;;2.00;;
45784;SDS011;31489;51.404;5.474;2023-07-29T00:35:21;5.80;;;2.40;;
45784;SDS011;31489;51.404;5.474;2023-07-29T00:37:46;2.95;;;2.00;;
45784;SDS011;31489;51.404;5.474;2023-07-29T00:40:14;2.47;;;2.05;;
45784;SDS011;31489;51.404;5.474;2023-07-29T00:42:43;5.28;;;2.00;;
45784;SDS011;31489;51.404;5.474;2023-07-29T00:45:09;2.50;;;2.10;;
45784;SDS011;31489;51.404;5.474;2023-07-29T00:47:36;2.42;;;2.15;;
45784;SDS011;31489;51.404;5.474;2023-07-29T00:50:03;2.00;;;1.80;;
45784;SDS011;31489;51.404;5.474;2023-07-29T00:52:29;2.35;;;2.15;;
45784;SDS011;31489;51.404;5.474;2023-07-29T00:54:58;4.68;;;2.15;;
45784;SDS011;31489;51.404;5.474;2023-07-29T00:57:24;2.97;;;2.03;;
45784;SDS011;31489;51.404;5.474;2023-07-29T00:59:51;2.30;;;2.10;;
45784;SDS011;31489;51.404;5.474;2023-07-29T01:02:17;2.72;;;2.47;;
45784;SDS011;31489;51.404;5.474;2023-07-29T01:04:43;3.05;;;2.08;;
45784;SDS011;31489;51.404;5.474;2023-07-29T01:07:14;2.95;;;2.40;;
45784;SDS011;31489;51.404;5.474;2023-07-29T01:16:00;3.95;;;2.40;;
45784;SDS011;31489;51.404;5.474;2023-07-29T01:18:31;3.03;;;2.10;;
45784;SDS011;31489;51.404;5.474;2023-07-29T01:21:06;2.95;;;2.38;;
45784;SDS011;31489;51.404;5.474;2023-07-29T01:23:34;2.63;;;2.30;;
45784;SDS011;31489;51.404;5.474;2023-07-29T01:26:00;3.15;;;2.25;;
45784;SDS011;31489;51.404;5.474;2023-07-29T01:28:27;2.38;;;2.10;;
45784;SDS011;31489;51.404;5.474;2023-07-29T01:31:01;3.05;;;2.30;;
45784;SDS011;31489;51.404;5.474;2023-07-29T01:33:42;2.45;;;2.25;;
45784;SDS011;31489;51.404;5.474;2023-07-29T01:36:20;2.45;;;2.22;;
45784;SDS011;31489;51.404;5.474;2023-07-29T01:38:48;2.67;;;2.08;;
45784;SDS011;31489;51.404;5.474;2023-07-29T01:41:16;2.58;;;2.28;;
45784;SDS011;31489;51.404;5.474;2023-07-29T01:43:43;3.53;;;2.20;;
45784;SDS011;31489;51.404;5.474;2023-07-29T01:46:10;2.25;;;2.05;;
45784;SDS011;31489;51.404;5.474;2023-07-29T01:48:37;4.28;;;2.20;;
45784;SDS011;31489;51.404;5.474;2023-07-29T01:51:03;3.75;;;2.45;;
45784;SDS011;31489;51.404;5.474;2023-07-29T01:53:29;2.65;;;2.45;;
45784;SDS011;31489;51.404;5.474;2023-07-29T01:55:55;3.30;;;2.63;;
45784;SDS011;31489;51.404;5.474;2023-07-29T01:58:22;3.95;;;2.47;;
45784;SDS011;31489;51.404;5.474;2023-07-29T02:00:47;2.97;;;2.60;;
45784;SDS011;31489;51.404;5.474;2023-07-29T02:03:13;4.03;;;2.45;;
45784;SDS011;31489;51.404;5.474;2023-07-29T02:05:39;4.15;;;2.97;;
45784;SDS011;31489;51.404;5.474;2023-07-29T02:08:05;4.72;;;3.33;;
45784;SDS011;31489;51.404;5.474;2023-07-29T02:10:31;5.63;;;3.70;;
45784;SDS011;31489;51.404;5.474;2023-07-29T02:12:56;5.57;;;3.55;;
45784;SDS011;31489;51.404;5.474;2023-07-29T02:15:22;4.40;;;3.50;;
45784;SDS011;31489;51.404;5.474;2023-07-29T02:17:49;4.75;;;3.70;;
45784;SDS011;31489;51.404;5.474;2023-07-29T02:20:16;6.18;;;3.22;;
45784;SDS011;31489;51.404;5.474;2023-07-29T02:22:41;4.28;;;3.40;;
45784;SDS011;31489;51.404;5.474;2023-07-29T02:25:07;4.40;;;3.50;;
45784;SDS011;31489;51.404;5.474;2023-07-29T02:27:33;4.95;;;3.42;;
45784;SDS011;31489;51.404;5.474;2023-07-29T02:29:58;4.22;;;3.47;;
45784;SDS011;31489;51.404;5.474;2023-07-29T02:32:24;4.47;;;3.30;;
45784;SDS011;31489;51.404;5.474;2023-07-29T02:34:50;3.65;;;3.30;;
45784;SDS011;31489;51.404;5.474;2023-07-29T02:37:15;4.95;;;3.10;;
45784;SDS011;31489;51.404;5.474;2023-07-29T02:39:41;5.40;;;3.25;;
45784;SDS011;31489;51.404;5.474;2023-07-29T02:42:07;3.97;;;3.22;;
45784;SDS011;31489;51.404;5.474;2023-07-29T02:44:33;4.47;;;3.50;;
45784;SDS011;31489;51.404;5.474;2023-07-29T02:46:58;3.65;;;3.20;;
45784;SDS011;31489;51.404;5.474;2023-07-29T02:49:24;5.78;;;3.40;;
45784;SDS011;31489;51.404;5.474;2023-07-29T02:51:49;4.47;;;3.60;;
45784;SDS011;31489;51.404;5.474;2023-07-29T02:54:15;4.70;;;3.50;;
45784;SDS011;31489;51.404;5.474;2023-07-29T02:56:41;3.70;;;3.25;;
45784;SDS011;31489;51.404;5.474;2023-07-29T02:59:06;6.90;;;3.50;;
45784;SDS011;31489;51.404;5.474;2023-07-29T03:01:32;4.38;;;3.47;;
45784;SDS011;31489;51.404;5.474;2023-07-29T03:03:57;3.95;;;3.55;;
45784;SDS011;31489;51.404;5.474;2023-07-29T03:06:23;4.90;;;3.15;;
45784;SDS011;31489;51.404;5.474;2023-07-29T03:08:49;3.58;;;3.22;;
45784;SDS011;31489;51.404;5.474;2023-07-29T03:11:15;7.03;;;3.30;;
45784;SDS011;31489;51.404;5.474;2023-07-29T03:13:41;3.33;;;2.92;;
45784;SDS011;31489;51.404;5.474;2023-07-29T03:16:09;3.83;;;3.03;;
45784;SDS011;31489;51.404;5.474;2023-07-29T03:18:35;3.17;;;2.70;;
45784;SDS011;31489;51.404;5.474;2023-07-29T03:21:02;4.78;;;3.10;;
45784;SDS011;31489;51.404;5.474;2023-07-29T03:23:28;2.45;;;2.25;;
45784;SDS011;31489;51.404;5.474;2023-07-29T03:25:55;3.38;;;2.90;;
45784;SDS011;31489;51.404;5.474;2023-07-29T03:28:23;4.07;;;2.80;;
45784;SDS011;31489;51.404;5.474;2023-07-29T03:30:50;4.68;;;2.47;;
45784;SDS011;31489;51.404;5.474;2023-07-29T03:33:16;4.00;;;2.38;;
45784;SDS011;31489;51.404;5.474;2023-07-29T03:35:41;5.25;;;2.53;;
45784;SDS011;31489;51.404;5.474;2023-07-29T03:38:09;4.18;;;2.60;;
45784;SDS011;31489;51.404;5.474;2023-07-29T03:40:36;3.50;;;2.50;;
45784;SDS011;31489;51.404;5.474;2023-07-29T03:43:04;3.72;;;2.40;;
45784;SDS011;31489;51.404;5.474;2023-07-29T03:45:30;3.38;;;2.60;;
45784;SDS011;31489;51.404;5.474;2023-07-29T03:47:57;2.40;;;2.10;;
45784;SDS011;31489;51.404;5.474;2023-07-29T03:50:22;5.07;;;2.70;;
45784;SDS011;31489;51.404;5.474;2023-07-29T03:52:49;4.28;;;2.08;;
45784;SDS011;31489;51.404;5.474;2023-07-29T03:55:15;2.88;;;2.42;;
45784;SDS011;31489;51.404;5.474;2023-07-29T03:57:40;3.60;;;2.10;;
45784;SDS011;31489;51.404;5.474;2023-07-29T04:00:06;2.80;;;2.47;;
45784;SDS011;31489;51.404;5.474;2023-07-29T04:02:34;3.33;;;2.40;;
45784;SDS011;31489;51.404;5.474;2023-07-29T04:05:02;2.60;;;2.08;;
45784;SDS011;31489;51.404;5.474;2023-07-29T04:07:29;6.15;;;2.35;;
45784;SDS011;31489;51.404;5.474;2023-07-29T04:09:55;2.97;;;2.33;;
45784;SDS011;31489;51.404;5.474;2023-07-29T04:12:20;4.57;;;1.92;;
45784;SDS011;31489;51.404;5.474;2023-07-29T04:14:46;2.15;;;1.95;;
45784;SDS011;31489;51.404;5.474;2023-07-29T04:17:12;4.43;;;2.50;;
45784;SDS011;31489;51.404;5.474;2023-07-29T04:19:38;3.13;;;2.00;;
45784;SDS011;31489;51.404;5.474;2023-07-29T04:22:03;1.63;;;1.52;;
45784;SDS011;31489;51.404;5.474;2023-07-29T04:24:29;2.80;;;2.08;;
45784;SDS011;31489;51.404;5.474;2023-07-29T04:26:57;2.60;;;2.00;;
45784;SDS011;31489;51.404;5.474;2023-07-29T04:29:23;7.13;;;1.90;;
45784;SDS011;31489;51.404;5.474;2023-07-29T04:31:49;2.75;;;2.10;;
45784;SDS011;31489;51.404;5.474;2023-07-29T04:34:15;5.53;;;2.03;;
45784;SDS011;31489;51.404;5.474;2023-07-29T04:36:42;3.22;;;2.03;;
45784;SDS011;31489;51.404;5.474;2023-07-29T04:39:07;2.25;;;2.00;;
45784;SDS011;31489;51.404;5.474;2023-07-29T04:41:34;6.60;;;2.08;;
45784;SDS011;31489;51.404;5.474;2023-07-29T04:43:59;5.18;;;2.20;;
45784;SDS011;31489;51.404;5.474;2023-07-29T04:46:25;4.30;;;2.28;;
45784;SDS011;31489;51.404;5.474;2023-07-29T04:48:51;2.67;;;1.98;;
45784;SDS011;31489;51.404;5.474;2023-07-29T04:51:16;3.30;;;2.13;;
45784;SDS011;31489;51.404;5.474;2023-07-29T04:53:42;2.90;;;2.40;;
45784;SDS011;31489;51.404;5.474;2023-07-29T04:56:07;2.83;;;2.00;;
45784;SDS011;31489;51.404;5.474;2023-07-29T04:58:33;1.95;;;1.77;;
45784;SDS011;31489;51.404;5.474;2023-07-29T05:01:00;2.17;;;1.95;;
45784;SDS011;31489;51.404;5.474;2023-07-29T05:03:27;4.75;;;2.08;;
45784;SDS011;31489;51.404;5.474;2023-07-29T05:05:53;3.95;;;1.80;;
45784;SDS011;31489;51.404;5.474;2023-07-29T05:08:20;3.58;;;1.92;;
45784;SDS011;31489;51.404;5.474;2023-07-29T05:10:49;2.60;;;1.60;;
45784;SDS011;31489;51.404;5.474;2023-07-29T05:13:16;2.35;;;2.00;;
45784;SDS011;31489;51.404;5.474;2023-07-29T05:15:42;3.15;;;1.88;;
45784;SDS011;31489;51.404;5.474;2023-07-29T05:18:07;1.92;;;1.73;;
45784;SDS011;31489;51.404;5.474;2023-07-29T05:20:33;3.13;;;2.03;;
45784;SDS011;31489;51.404;5.474;2023-07-29T05:22:59;2.45;;;1.83;;
45784;SDS011;31489;51.404;5.474;2023-07-29T05:25:25;3.25;;;1.80;;
45784;SDS011;31489;51.404;5.474;2023-07-29T05:27:51;2.33;;;1.90;;
45784;SDS011;31489;51.404;5.474;2023-07-29T05:30:16;2.42;;;1.80;;
45784;SDS011;31489;51.404;5.474;2023-07-29T05:32:42;2.72;;;2.10;;
45784;SDS011;31489;51.404;5.474;2023-07-29T05:35:08;2.70;;;1.92;;
45784;SDS011;31489;51.404;5.474;2023-07-29T05:37:35;2.80;;;1.98;;
45784;SDS011;31489;51.404;5.474;2023-07-29T05:40:03;2.78;;;2.03;;
45784;SDS011;31489;51.404;5.474;2023-07-29T05:42:29;2.33;;;2.13;;
45784;SDS011;31489;51.404;5.474;2023-07-29T05:44:54;3.53;;;1.85;;
45784;SDS011;31489;51.404;5.474;2023-07-29T05:47:20;3.75;;;1.83;;
45784;SDS011;31489;51.404;5.474;2023-07-29T05:49:46;3.55;;;2.05;;
45784;SDS011;31489;51.404;5.474;2023-07-29T05:52:11;3.10;;;2.00;;
45784;SDS011;31489;51.404;5.474;2023-07-29T05:54:37;5.25;;;2.22;;
45784;SDS011;31489;51.404;5.474;2023-07-29T05:57:02;2.50;;;1.60;;
45784;SDS011;31489;51.404;5.474;2023-07-29T05:59:28;3.38;;;2.00;;
45784;SDS011;31489;51.404;5.474;2023-07-29T06:01:54;2.22;;;1.92;;
45784;SDS011;31489;51.404;5.474;2023-07-29T06:04:20;4.38;;;2.00;;
45784;SDS011;31489;51.404;5.474;2023-07-29T06:06:46;2.30;;;2.10;;
45784;SDS011;31489;51.404;5.474;2023-07-29T06:09:11;2.30;;;1.83;;
45784;SDS011;31489;51.404;5.474;2023-07-29T06:11:37;1.83;;;1.63;;
45784;SDS011;31489;51.404;5.474;2023-07-29T06:14:03;3.72;;;1.63;;
45784;SDS011;31489;51.404;5.474;2023-07-29T06:16:28;2.30;;;1.70;;
45784;SDS011;31489;51.404;5.474;2023-07-29T06:18:54;2.38;;;1.52;;
45784;SDS011;31489;51.404;5.474;2023-07-29T06:21:19;2.05;;;1.85;;
45784;SDS011;31489;51.404;5.474;2023-07-29T06:23:45;3.58;;;1.73;;
45784;SDS011;31489;51.404;5.474;2023-07-29T06:26:11;2.25;;;1.70;;
45784;SDS011;31489;51.404;5.474;2023-07-29T06:28:37;2.50;;;1.63;;
45784;SDS011;31489;51.404;5.474;2023-07-29T06:31:03;2.35;;;1.50;;
45784;SDS011;31489;51.404;5.474;2023-07-29T06:33:28;2.55;;;1.67;;
45784;SDS011;31489;51.404;5.474;2023-07-29T06:35:54;1.95;;;1.48;;
45784;SDS011;31489;51.404;5.474;2023-07-29T06:38:19;4.07;;;1.80;;
45784;SDS011;31489;51.404;5.474;2023-07-29T06:40:50;3.25;;;1.80;;
45784;SDS011;31489;51.404;5.474;2023-07-29T06:43:16;2.90;;;1.52;;
45784;SDS011;31489;51.404;5.474;2023-07-29T06:45:42;1.83;;;1.63;;
45784;SDS011;31489;51.404;5.474;2023-07-29T06:48:10;1.70;;;1.60;;
45784;SDS011;31489;51.404;5.474;2023-07-29T06:50:36;2.33;;;1.67;;
45784;SDS011;31489;51.404;5.474;2023-07-29T06:53:03;2.92;;;1.85;;
45784;SDS011;31489;51.404;5.474;2023-07-29T06:55:28;2.42;;;1.42;;
45784;SDS011;31489;51.404;5.474;2023-07-29T06:57:54;2.65;;;1.60;;
45784;SDS011;31489;51.404;5.474;2023-07-29T07:00:23;1.73;;;1.42;;
45784;SDS011;31489;51.404;5.474;2023-07-29T07:02:49;2.85;;;1.48;;
45784;SDS011;31489;51.404;5.474;2023-07-29T07:05:14;1.58;;;1.48;;
45784;SDS011;31489;51.404;5.474;2023-07-29T07:07:40;3.50;;;1.92;;
45784;SDS011;31489;51.404;5.474;2023-07-29T07:10:06;2.05;;;1.60;;
45784;SDS011;31489;51.404;5.474;2023-07-29T07:12:32;2.50;;;1.67;;
45784;SDS011;31489;51.404;5.474;2023-07-29T07:14:57;1.58;;;1.48;;
45784;SDS011;31489;51.404;5.474;2023-07-29T07:17:23;3.58;;;1.48;;
45784;SDS011;31489;51.404;5.474;2023-07-29T07:19:48;1.60;;;1.50;;
45784;SDS011;31489;51.404;5.474;2023-07-29T07:22:14;1.70;;;1.48;;
45784;SDS011;31489;51.404;5.474;2023-07-29T07:24:41;2.25;;;1.65;;
45784;SDS011;31489;51.404;5.474;2023-07-29T07:27:06;1.40;;;1.30;;
45784;SDS011;31489;51.404;5.474;2023-07-29T07:29:32;3.00;;;1.35;;
45784;SDS011;31489;51.404;5.474;2023-07-29T07:31:58;1.55;;;1.30;;
45784;SDS011;31489;51.404;5.474;2023-07-29T07:34:26;1.50;;;1.30;;
45784;SDS011;31489;51.404;5.474;2023-07-29T07:36:52;2.42;;;1.25;;
45784;SDS011;31489;51.404;5.474;2023-07-29T07:39:17;1.52;;;1.25;;
45784;SDS011;31489;51.404;5.474;2023-07-29T07:41:44;3.15;;;1.20;;
45784;SDS011;31489;51.404;5.474;2023-07-29T07:44:09;1.30;;;1.20;;
45784;SDS011;31489;51.404;5.474;2023-07-29T07:46:37;1.88;;;1.38;;
45784;SDS011;31489;51.404;5.474;2023-07-29T07:49:03;1.45;;;1.20;;
45784;SDS011;31489;51.404;5.474;2023-07-29T07:51:29;1.20;;;1.17;;
45784;SDS011;31489;51.404;5.474;2023-07-29T07:53:55;5.47;;;1.42;;
45784;SDS011;31489;51.404;5.474;2023-07-29T07:56:20;2.10;;;1.30;;
45784;SDS011;31489;51.404;5.474;2023-07-29T07:58:46;1.73;;;1.30;;
45784;SDS011;31489;51.404;5.474;2023-07-29T08:01:11;3.33;;;1.50;;
45784;SDS011;31489;51.404;5.474;2023-07-29T08:03:37;1.88;;;1.23;;
45784;SDS011;31489;51.404;5.474;2023-07-29T08:06:03;1.23;;;1.10;;
45784;SDS011;31489;51.404;5.474;2023-07-29T08:08:30;2.47;;;1.48;;
45784;SDS011;31489;51.404;5.474;2023-07-29T08:10:58;1.70;;;1.13;;
45784;SDS011;31489;51.404;5.474;2023-07-29T08:13:24;1.25;;;1.15;;
45784;SDS011;31489;51.404;5.474;2023-07-29T08:15:52;2.50;;;1.30;;
45784;SDS011;31489;51.404;5.474;2023-07-29T08:18:21;2.25;;;1.50;;
45784;SDS011;31489;51.404;5.474;2023-07-29T08:20:53;3.25;;;1.27;;
45784;SDS011;31489;51.404;5.474;2023-07-29T08:23:24;4.75;;;1.40;;
45784;SDS011;31489;51.404;5.474;2023-07-29T08:25:52;2.10;;;1.35;;
45784;SDS011;31489;51.404;5.474;2023-07-29T08:28:18;1.33;;;1.23;;
45784;SDS011;31489;51.404;5.474;2023-07-29T08:30:44;1.65;;;1.35;;
45784;SDS011;31489;51.404;5.474;2023-07-29T08:33:10;1.60;;;1.10;;
45784;SDS011;31489;51.404;5.474;2023-07-29T08:35:35;1.20;;;1.10;;
45784;SDS011;31489;51.404;5.474;2023-07-29T08:38:02;2.35;;;1.00;;
45784;SDS011;31489;51.404;5.474;2023-07-29T08:40:29;1.63;;;1.30;;
45784;SDS011;31489;51.404;5.474;2023-07-29T08:42:56;1.77;;;1.17;;
45784;SDS011;31489;51.404;5.474;2023-07-29T08:45:26;1.25;;;1.15;;
45784;SDS011;31489;51.404;5.474;2023-07-29T08:47:53;1.73;;;1.35;;
45784;SDS011;31489;51.404;5.474;2023-07-29T08:50:22;1.40;;;1.30;;
45784;SDS011;31489;51.404;5.474;2023-07-29T08:52:49;2.25;;;1.40;;
45784;SDS011;31489;51.404;5.474;2023-07-29T08:55:17;2.72;;;1.15;;
45784;SDS011;31489;51.404;5.474;2023-07-29T08:57:44;1.27;;;1.17;;
45784;SDS011;31489;51.404;5.474;2023-07-29T09:00:10;1.17;;;1.00;;
45784;SDS011;31489;51.404;5.474;2023-07-29T09:02:37;1.80;;;1.05;;
45784;SDS011;31489;51.404;5.474;2023-07-29T09:05:02;1.40;;;1.30;;
45784;SDS011;31489;51.404;5.474;2023-07-29T09:07:28;2.35;;;1.40;;
45784;SDS011;31489;51.404;5.474;2023-07-29T09:09:54;1.10;;;1.00;;
45784;SDS011;31489;51.404;5.474;2023-07-29T09:12:20;1.92;;;1.42;;
45784;SDS011;31489;51.404;5.474;2023-07-29T09:14:46;1.13;;;1.00;;
45784;SDS011;31489;51.404;5.474;2023-07-29T09:17:11;1.30;;;1.10;;
45784;SDS011;31489;51.404;5.474;2023-07-29T09:19:39;3.47;;;1.35;;
45784;SDS011;31489;51.404;5.474;2023-07-29T09:22:04;2.03;;;1.17;;
45784;SDS011;31489;51.404;5.474;2023-07-29T09:24:41;1.10;;;1.00;;
45784;SDS011;31489;51.404;5.474;2023-07-29T09:27:07;1.20;;;1.10;;
45784;SDS011;31489;51.404;5.474;2023-07-29T09:29:35;1.65;;;1.10;;
45784;SDS011;31489;51.404;5.474;2023-07-29T09:32:17;1.77;;;1.00;;
45784;SDS011;31489;51.404;5.474;2023-07-29T09:34:44;1.58;;;1.00;;
45784;SDS011;31489;51.404;5.474;2023-07-29T09:37:14;1.10;;;1.10;;
45784;SDS011;31489;51.404;5.474;2023-07-29T09:39:47;1.00;;;0.93;;
45784;SDS011;31489;51.404;5.474;2023-07-29T09:42:17;2.42;;;1.38;;
45784;SDS011;31489;51.404;5.474;2023-07-29T09:44:48;1.30;;;1.20;;
45784;SDS011;31489;51.404;5.474;2023-07-29T09:47:21;1.48;;;1.17;;
45784;SDS011;31489;51.404;5.474;2023-07-29T09:49:49;1.88;;;1.33;;
45784;SDS011;31489;51.404;5.474;2023-07-29T09:52:16;1.10;;;1.10;;
45784;SDS011;31489;51.404;5.474;2023-07-29T09:54:46;1.23;;;1.13;;
45784;SDS011;31489;51.404;5.474;2023-07-29T09:57:16;1.55;;;1.20;;
45784;SDS011;31489;51.404;5.474;2023-07-29T09:59:52;1.67;;;1.30;;
45784;SDS011;31489;51.404;5.474;2023-07-29T10:02:22;1.33;;;1.20;;
45784;SDS011;31489;51.404;5.474;2023-07-29T10:04:48;1.95;;;1.20;;
45784;SDS011;31489;51.404;5.474;2023-07-29T10:07:14;1.20;;;1.17;;
45784;SDS011;31489;51.404;5.474;2023-07-29T10:09:40;2.70;;;1.10;;
45784;SDS011;31489;51.404;5.474;2023-07-29T10:12:07;1.83;;;1.33;;
45784;SDS011;31489;51.404;5.474;2023-07-29T10:14:34;2.65;;;1.10;;
45784;SDS011;31489;51.404;5.474;2023-07-29T10:17:01;1.63;;;1.20;;
45784;SDS011;31489;51.404;5.474;2023-07-29T10:19:28;2.17;;;1.20;;
45784;SDS011;31489;51.404;5.474;2023-07-29T10:21:55;1.60;;;1.50;;
45784;SDS011;31489;51.404;5.474;2023-07-29T10:24:24;1.38;;;1.13;;
45784;SDS011;31489;51.404;5.474;2023-07-29T10:26:57;2.30;;;1.63;;
45784;SDS011;31489;51.404;5.474;2023-07-29T10:29:24;1.63;;;1.52;;
45784;SDS011;31489;51.404;5.474;2023-07-29T10:31:54;1.77;;;1.42;;
45784;SDS011;31489;51.404;5.474;2023-07-29T10:34:22;2.10;;;1.65;;
45784;SDS011;31489;51.404;5.474;2023-07-29T10:36:49;3.17;;;1.35;;
45784;SDS011;31489;51.404;5.474;2023-07-29T10:39:16;4.15;;;1.50;;
45784;SDS011;31489;51.404;5.474;2023-07-29T10:47:14;2.17;;;1.33;;
45784;SDS011;31489;51.404;5.474;2023-07-29T10:49:43;2.50;;;1.48;;
45784;SDS011;31489;51.404;5.474;2023-07-29T10:52:16;2.35;;;1.38;;
45784;SDS011;31489;51.404;5.474;2023-07-29T10:54:52;1.90;;;1.40;;
45784;SDS011;31489;51.404;5.474;2023-07-29T10:57:34;2.40;;;1.58;;
45784;SDS011;31489;51.404;5.474;2023-07-29T11:00:02;1.40;;;1.30;;
45784;SDS011;31489;51.404;5.474;2023-07-29T11:05:06;1.10;;;1.00;;
45784;SDS011;31489;51.404;5.474;2023-07-29T11:07:42;1.65;;;1.27;;
45784;SDS011;31489;51.404;5.474;2023-07-29T11:10:11;1.20;;;1.10;;
45784;SDS011;31489;51.404;5.474;2023-07-29T11:12:41;2.58;;;1.23;;
45784;SDS011;31489;51.404;5.474;2023-07-29T11:20:14;2.05;;;1.27;;
45784;SDS011;31489;51.404;5.474;2023-07-29T11:22:41;3.15;;;1.40;;
45784;SDS011;31489;51.404;5.474;2023-07-29T11:25:07;2.42;;;1.33;;
45784;SDS011;31489;51.404;5.474;2023-07-29T11:27:35;2.20;;;1.58;;
45784;SDS011;31489;51.404;5.474;2023-07-29T11:30:02;2.38;;;1.48;;
45784;SDS011;31489;51.404;5.474;2023-07-29T11:32:33;1.85;;;1.10;;
45784;SDS011;31489;51.404;5.474;2023-07-29T11:35:10;3.10;;;1.50;;
45784;SDS011;31489;51.404;5.474;2023-07-29T11:37:40;1.77;;;1.40;;
45784;SDS011;31489;51.404;5.474;2023-07-29T11:40:08;1.88;;;1.50;;
45784;SDS011;31489;51.404;5.474;2023-07-29T11:42:37;3.75;;;1.52;;
45784;SDS011;31489;51.404;5.474;2023-07-29T11:45:03;1.80;;;1.33;;
45784;SDS011;31489;51.404;5.474;2023-07-29T11:47:31;4.93;;;1.40;;
45784;SDS011;31489;51.404;5.474;2023-07-29T11:50:00;1.48;;;1.33;;
45784;SDS011;31489;51.404;5.474;2023-07-29T11:52:27;2.22;;;1.50;;
45784;SDS011;31489;51.404;5.474;2023-07-29T11:54:53;2.42;;;1.50;;
45784;SDS011;31489;51.404;5.474;2023-07-29T11:57:19;3.00;;;1.40;;
45784;SDS011;31489;51.404;5.474;2023-07-29T11:59:46;3.85;;;1.60;;
45784;SDS011;31489;51.404;5.474;2023-07-29T12:02:12;1.60;;;1.50;;
45784;SDS011;31489;51.404;5.474;2023-07-29T12:04:40;4.63;;;1.75;;
45784;SDS011;31489;51.404;5.474;2023-07-29T12:07:07;1.50;;;1.40;;
45784;SDS011;31489;51.404;5.474;2023-07-29T12:09:36;3.10;;;2.03;;
45784;SDS011;31489;51.404;5.474;2023-07-29T12:12:03;6.30;;;5.70;;
45784;SDS011;31489;51.404;5.474;2023-07-29T12:14:30;6.57;;;5.80;;
45784;SDS011;31489;51.404;5.474;2023-07-29T12:16:56;3.25;;;2.95;;
45784;SDS011;31489;51.404;5.474;2023-07-29T12:19:24;3.20;;;1.92;;
45784;SDS011;31489;51.404;5.474;2023-07-29T12:22:17;1.70;;;1.60;;
45784;SDS011;31489;51.404;5.474;2023-07-29T12:24:44;2.33;;;1.58;;
45784;SDS011;31489;51.404;5.474;2023-07-29T12:27:11;2.58;;;1.67;;
45784;SDS011;31489;51.404;5.474;2023-07-29T12:29:41;4.93;;;1.58;;
45784;SDS011;31489;51.404;5.474;2023-07-29T12:32:10;2.67;;;1.55;;
45784;SDS011;31489;51.404;5.474;2023-07-29T12:34:37;2.78;;;1.90;;
45784;SDS011;31489;51.404;5.474;2023-07-29T12:37:04;7.35;;;2.30;;
45784;SDS011;31489;51.404;5.474;2023-07-29T12:39:32;11.70;;;1.70;;
45784;SDS011;31489;51.404;5.474;2023-07-29T12:42:00;2.55;;;1.25;;
45784;SDS011;31489;51.404;5.474;2023-07-29T12:44:33;1.83;;;1.00;;
45784;SDS011;31489;51.404;5.474;2023-07-29T12:47:00;3.67;;;2.38;;
45784;SDS011;31489;51.404;5.474;2023-07-29T12:49:28;6.55;;;3.65;;
45784;SDS011;31489;51.404;5.474;2023-07-29T12:51:54;3.67;;;1.73;;
45784;SDS011;31489;51.404;5.474;2023-07-29T12:54:24;3.28;;;1.30;;
45784;SDS011;31489;51.404;5.474;2023-07-29T12:56:50;1.92;;;1.23;;
45784;SDS011;31489;51.404;5.474;2023-07-29T12:59:15;1.88;;;1.10;;
45784;SDS011;31489;51.404;5.474;2023-07-29T13:01:41;4.47;;;1.30;;
45784;SDS011;31489;51.404;5.474;2023-07-29T13:04:09;4.88;;;1.38;;
45784;SDS011;31489;51.404;5.474;2023-07-29T13:06:36;2.08;;;1.40;;
45784;SDS011;31489;51.404;5.474;2023-07-29T13:09:01;2.17;;;1.10;;
45784;SDS011;31489;51.404;5.474;2023-07-29T13:11:28;3.17;;;1.30;;
45784;SDS011;31489;51.404;5.474;2023-07-29T13:13:53;1.65;;;1.13;;
45784;SDS011;31489;51.404;5.474;2023-07-29T13:16:19;2.10;;;1.08;;
45784;SDS011;31489;51.404;5.474;2023-07-29T13:18:45;3.10;;;1.40;;
45784;SDS011;31489;51.404;5.474;2023-07-29T13:21:10;2.28;;;1.10;;
45784;SDS011;31489;51.404;5.474;2023-07-29T13:23:38;1.50;;;1.27;;
45784;SDS011;31489;51.404;5.474;2023-07-29T13:26:04;2.10;;;1.40;;
45784;SDS011;31489;51.404;5.474;2023-07-29T13:28:29;1.33;;;1.20;;
45784;SDS011;31489;51.404;5.474;2023-07-29T13:30:55;8.05;;;7.20;;
45784;SDS011;31489;51.404;5.474;2023-07-29T13:33:21;7.72;;;6.38;;
45784;SDS011;31489;51.404;5.474;2023-07-29T13:35:46;3.67;;;2.20;;
45784;SDS011;31489;51.404;5.474;2023-07-29T13:38:12;2.13;;;1.70;;
45784;SDS011;31489;51.404;5.474;2023-07-29T13:40:38;3.25;;;1.50;;
45784;SDS011;31489;51.404;5.474;2023-07-29T13:43:03;1.75;;;1.50;;
45784;SDS011;31489;51.404;5.474;2023-07-29T13:45:29;1.33;;;1.23;;
45784;SDS011;31489;51.404;5.474;2023-07-29T13:47:55;1.77;;;1.50;;
45784;SDS011;31489;51.404;5.474;2023-07-29T13:50:20;1.60;;;1.50;;
45784;SDS011;31489;51.404;5.474;2023-07-29T13:52:46;1.70;;;1.30;;
45784;SDS011;31489;51.404;5.474;2023-07-29T13:55:12;1.60;;;1.42;;
45784;SDS011;31489;51.404;5.474;2023-07-29T13:57:38;3.60;;;1.27;;
45784;SDS011;31489;51.404;5.474;2023-07-29T14:00:05;1.60;;;1.33;;
45784;SDS011;31489;51.404;5.474;2023-07-29T14:02:31;5.88;;;1.55;;
45784;SDS011;31489;51.404;5.474;2023-07-29T14:04:57;1.52;;;1.17;;
45784;SDS011;31489;51.404;5.474;2023-07-29T14:07:22;2.35;;;1.50;;
45784;SDS011;31489;51.404;5.474;2023-07-29T14:09:48;2.42;;;1.48;;
45784;SDS011;31489;51.404;5.474;2023-07-29T14:12:14;1.85;;;1.50;;
45784;SDS011;31489;51.404;5.474;2023-07-29T14:14:43;2.70;;;1.60;;
45784;SDS011;31489;51.404;5.474;2023-07-29T14:17:08;2.85;;;1.67;;
45784;SDS011;31489;51.404;5.474;2023-07-29T14:19:35;4.07;;;1.50;;
45784;SDS011;31489;51.404;5.474;2023-07-29T14:22:01;3.47;;;1.55;;
45784;SDS011;31489;51.404;5.474;2023-07-29T14:24:26;1.10;;;1.10;;
45784;SDS011;31489;51.404;5.474;2023-07-29T14:26:52;1.55;;;1.30;;
45784;SDS011;31489;51.404;5.474;2023-07-29T14:29:17;2.55;;;1.30;;
45784;SDS011;31489;51.404;5.474;2023-07-29T14:31:43;2.40;;;1.50;;
45784;SDS011;31489;51.404;5.474;2023-07-29T14:34:09;1.50;;;1.40;;
45784;SDS011;31489;51.404;5.474;2023-07-29T14:36:35;1.65;;;1.30;;
45784;SDS011;31489;51.404;5.474;2023-07-29T14:39:01;1.67;;;1.40;;
45784;SDS011;31489;51.404;5.474;2023-07-29T14:41:27;1.50;;;1.40;;
45784;SDS011;31489;51.404;5.474;2023-07-29T14:43:52;1.88;;;1.23;;
45784;SDS011;31489;51.404;5.474;2023-07-29T14:46:18;1.20;;;1.10;;
45784;SDS011;31489;51.404;5.474;2023-07-29T14:48:44;2.65;;;1.10;;
45784;SDS011;31489;51.404;5.474;2023-07-29T14:51:10;1.38;;;1.20;;
45784;SDS011;31489;51.404;5.474;2023-07-29T14:53:36;1.58;;;1.48;;
45784;SDS011;31489;51.404;5.474;2023-07-29T14:56:01;1.73;;;1.40;;
45784;SDS011;31489;51.404;5.474;2023-07-29T14:58:27;1.55;;;1.40;;
45784;SDS011;31489;51.404;5.474;2023-07-29T15:00:52;2.72;;;1.23;;
45784;SDS011;31489;51.404;5.474;2023-07-29T15:03:18;2.58;;;1.40;;
45784;SDS011;31489;51.404;5.474;2023-07-29T15:05:44;1.95;;;1.50;;